createdAt,value
2015-05-01T00:00:08.798Z,100296
2015-05-01T00:00:22.845Z,100315
2015-05-01T00:00:36.845Z,100312
2015-05-01T00:00:51.876Z,100306
2015-05-01T00:01:05.894Z,100318
2015-05-01T00:01:19.941Z,100296
2015-05-01T00:01:33.925Z,100302
2015-05-01T00:01:47.878Z,100312
2015-05-01T00:02:01.741Z,100312
2015-05-01T00:02:15.756Z,100312
2015-05-01T00:02:29.709Z,100318
2015-05-01T00:02:43.600Z,100318
2015-05-01T00:02:57.586Z,100302
2015-05-01T00:03:11.571Z,100312
2015-05-01T00:03:25.430Z,100312
2015-05-01T00:03:39.415Z,100299
2015-05-01T00:03:53.446Z,100306
2015-05-01T00:04:07.307Z,100309
2015-05-01T00:04:21.229Z,100299
2015-05-01T00:04:35.151Z,100299
2015-05-01T00:04:49.182Z,100309
2015-05-01T00:05:03.169Z,100306
2015-05-01T00:05:17.059Z,100306
2015-05-01T00:05:31.044Z,100302
2015-05-01T00:05:45.090Z,100315
2015-05-01T00:05:58.968Z,100302
2015-05-01T00:06:12.968Z,100315
2015-05-01T00:06:34.265Z,100296
2015-05-01T00:06:48.203Z,100299
2015-05-01T00:07:02.127Z,100299
2015-05-01T00:07:16.189Z,100299
2015-05-01T00:07:30.174Z,100290
2015-05-01T00:07:44.189Z,100312
2015-05-01T00:07:58.067Z,100315
2015-05-01T00:08:12.005Z,100309
2015-05-01T00:08:26.036Z,100302
2015-05-01T00:08:39.973Z,100302
2015-05-01T00:08:53.880Z,100309
2015-05-01T00:09:07.912Z,100305
2015-05-01T00:09:21.849Z,100288
2015-05-01T00:09:35.756Z,100296
2015-05-01T00:09:49.803Z,100302
2015-05-01T00:10:03.774Z,100293
2015-05-01T00:10:17.665Z,100299
2015-05-01T00:10:31.665Z,100302
2015-05-01T00:10:45.571Z,100290
2015-05-01T00:10:59.604Z,100302
2015-05-01T00:11:13.526Z,100296
2015-05-01T00:11:27.386Z,100305
2015-05-01T00:11:41.401Z,100293
2015-05-01T00:11:55.386Z,100299
2015-05-01T00:12:09.295Z,100299
2015-05-01T00:12:23.342Z,100302
2015-05-01T00:12:37.357Z,100285
2015-05-01T00:12:51.248Z,100293
2015-05-01T00:13:05.219Z,100309
2015-05-01T00:13:19.328Z,100288
2015-05-01T00:13:33.219Z,100290
2015-05-01T00:13:47.156Z,100302
2015-05-01T00:14:01.190Z,100299
2015-05-01T00:14:15.111Z,100302
2015-05-01T00:14:29.033Z,100299
2015-05-01T00:14:43.080Z,100293
2015-05-01T00:14:57.002Z,100293
2015-05-01T00:15:10.864Z,100293
2015-05-01T00:15:24.802Z,100305
2015-05-01T00:15:38.755Z,100305
2015-05-01T00:15:52.646Z,100305
2015-05-01T00:16:06.648Z,100312
2015-05-01T00:16:20.632Z,100296
2015-05-01T00:16:34.554Z,100299
2015-05-01T00:16:48.476Z,100305
2015-05-01T00:17:02.368Z,100309
2015-05-01T00:17:16.368Z,100309
2015-05-01T00:17:30.400Z,100302
2015-05-01T00:17:44.275Z,100299
2015-05-01T00:17:58.290Z,100305
2015-05-01T00:18:12.370Z,100296
2015-05-01T00:18:26.261Z,100296
2015-05-01T00:18:40.230Z,100302
2015-05-01T00:18:54.277Z,100302
2015-05-01T00:19:08.186Z,100305
2015-05-01T00:19:22.170Z,100296
2015-05-01T00:19:36.123Z,100288
2015-05-01T00:19:50.155Z,100299
2015-05-01T00:20:04.142Z,100305
2015-05-01T00:20:18.033Z,100305
2015-05-01T00:20:32.001Z,100299
2015-05-01T00:20:45.986Z,100285
2015-05-01T00:20:59.876Z,100308
2015-05-01T00:21:13.847Z,100293
2015-05-01T00:21:27.863Z,100288
2015-05-01T00:21:41.769Z,100296
2015-05-01T00:21:55.691Z,100296
2015-05-01T00:22:09.693Z,100296
2015-05-01T00:22:23.630Z,100290
2015-05-01T00:22:37.599Z,100293
2015-05-01T00:22:51.537Z,100302
2015-05-01T00:23:05.461Z,100302
2015-05-01T00:23:19.476Z,100290
2015-05-01T00:23:33.398Z,100296
2015-05-01T00:23:47.351Z,100288
2015-05-01T00:24:01.429Z,100296
2015-05-01T00:24:15.401Z,100290
2015-05-01T00:24:29.292Z,100288
2015-05-01T00:24:43.385Z,100302
2015-05-01T00:24:57.417Z,100285
2015-05-01T00:25:11.341Z,100302
2015-05-01T00:25:25.372Z,100290
2015-05-01T00:25:39.294Z,100290
2015-05-01T00:25:53.294Z,100308
2015-05-01T00:26:07.233Z,100302
2015-05-01T00:26:21.108Z,100302
2015-05-01T00:26:35.171Z,100308
2015-05-01T00:26:49.139Z,100299
2015-05-01T00:27:03.014Z,100305
2015-05-01T00:27:17.002Z,100293
2015-05-01T00:27:31.017Z,100302
2015-05-01T00:27:44.892Z,100299
2015-05-01T00:27:58.877Z,100296
2015-05-01T00:28:12.894Z,100305
2015-05-01T00:28:26.816Z,100299
2015-05-01T00:28:40.769Z,100305
2015-05-01T00:28:54.629Z,100311
2015-05-01T00:29:08.646Z,100302
2015-05-01T00:29:22.646Z,100299
2015-05-01T00:29:36.537Z,100308
2015-05-01T00:29:50.506Z,100299
2015-05-01T00:30:04.600Z,100296
2015-05-01T00:30:18.508Z,100308
2015-05-01T00:30:32.477Z,100296
2015-05-01T00:30:49.852Z,100305
2015-05-01T00:31:03.820Z,100308
2015-05-01T00:31:17.761Z,100308
2015-05-01T00:31:31.745Z,100305
2015-05-01T00:31:45.698Z,100302
2015-05-01T00:31:59.683Z,100293
2015-05-01T00:32:13.608Z,100299
2015-05-01T00:32:27.561Z,100308
2015-05-01T00:32:41.545Z,100296
2015-05-01T00:32:55.451Z,100293
2015-05-01T00:33:09.358Z,100288
2015-05-01T00:33:23.406Z,100296
2015-05-01T00:33:37.344Z,100302
2015-05-01T00:33:51.203Z,100299
2015-05-01T00:34:05.219Z,100302
2015-05-01T00:34:19.158Z,100296
2015-05-01T00:34:33.143Z,100290
2015-05-01T00:34:47.080Z,100299
2015-05-01T00:35:01.018Z,100290
2015-05-01T00:35:15.036Z,100288
2015-05-01T00:35:28.896Z,100299
2015-05-01T00:35:42.786Z,100299
2015-05-01T00:35:56.833Z,100290
2015-05-01T00:36:10.802Z,100288
2015-05-01T00:36:24.725Z,100282
2015-05-01T00:36:38.772Z,100282
2015-05-01T00:36:52.866Z,100288
2015-05-01T00:37:06.772Z,100279
2015-05-01T00:37:20.744Z,100285
2015-05-01T00:37:34.744Z,100288
2015-05-01T00:37:48.634Z,100285
2015-05-01T00:38:02.587Z,100288
2015-05-01T00:38:16.622Z,100282
2015-05-01T00:38:30.512Z,100282
2015-05-01T00:38:44.418Z,100285
2015-05-01T00:38:58.434Z,100299
2015-05-01T00:39:12.450Z,100285
2015-05-01T00:39:26.342Z,100290
2015-05-01T00:39:40.436Z,100290
2015-05-01T00:39:54.389Z,100279
2015-05-01T00:40:08.249Z,100288
2015-05-01T00:40:22.282Z,100288
2015-05-01T00:40:36.235Z,100282
2015-05-01T00:40:50.266Z,100279
2015-05-01T00:41:04.219Z,100282
2015-05-01T00:41:18.112Z,100288
2015-05-01T00:41:32.190Z,100282
2015-05-01T00:41:46.159Z,100290
2015-05-01T00:42:00.034Z,100293
2015-05-01T00:42:14.081Z,100279
2015-05-01T00:42:28.131Z,100279
2015-05-01T00:42:42.052Z,100279
2015-05-01T00:42:56.068Z,100285
2015-05-01T00:43:10.131Z,100285
2015-05-01T00:43:24.023Z,100290
2015-05-01T00:43:37.992Z,100288
2015-05-01T00:43:51.867Z,100282
2015-05-01T00:44:05.851Z,100285
2015-05-01T00:44:19.869Z,100279
2015-05-01T00:44:33.728Z,100282
2015-05-01T00:44:47.697Z,100285
2015-05-01T00:45:01.713Z,100296
2015-05-01T00:45:15.619Z,100285
2015-05-01T00:45:29.591Z,100288
2015-05-01T00:45:43.591Z,100279
2015-05-01T00:45:57.513Z,100282
2015-05-01T00:46:11.434Z,100288
2015-05-01T00:46:25.452Z,100293
2015-05-01T00:46:39.421Z,100293
2015-05-01T00:46:53.436Z,100276
2015-05-01T00:47:07.327Z,100276
2015-05-01T00:47:21.283Z,100290
2015-05-01T00:47:35.330Z,100282
2015-05-01T00:47:49.283Z,100285
2015-05-01T00:48:03.221Z,100279
2015-05-01T00:48:17.299Z,100282
2015-05-01T00:48:31.270Z,100282
2015-05-01T00:48:45.160Z,100285
2015-05-01T00:48:59.191Z,100288
2015-05-01T00:49:13.191Z,100285
2015-05-01T00:49:27.147Z,100279
2015-05-01T00:49:41.053Z,100285
2015-05-01T00:49:54.990Z,100279
2015-05-01T00:50:09.022Z,100288
2015-05-01T00:50:22.961Z,100279
2015-05-01T00:50:36.836Z,100272
2015-05-01T00:50:50.789Z,100282
2015-05-01T00:51:04.789Z,100276
2015-05-01T00:51:18.664Z,100279
2015-05-01T00:51:32.666Z,100272
2015-05-01T00:51:46.635Z,100282
2015-05-01T00:52:00.526Z,100276
2015-05-01T00:52:14.510Z,100285
2015-05-01T00:52:28.419Z,100276
2015-05-01T00:52:42.419Z,100269
2015-05-01T00:52:56.450Z,100272
2015-05-01T00:53:10.310Z,100275
2015-05-01T00:53:24.344Z,100269
2015-05-01T00:53:38.344Z,100272
2015-05-01T00:53:52.250Z,100275
2015-05-01T00:54:06.235Z,100263
2015-05-01T00:54:20.266Z,100272
2015-05-01T00:54:34.143Z,100282
2015-05-01T00:54:48.065Z,100275
2015-05-01T00:55:02.096Z,100282
2015-05-01T00:55:16.002Z,100282
2015-05-01T00:55:29.957Z,100282
2015-05-01T00:55:43.832Z,100279
2015-05-01T00:55:57.786Z,100266
2015-05-01T00:56:11.817Z,100279
2015-05-01T00:56:25.695Z,100275
2015-05-01T00:56:39.632Z,100272
2015-05-01T00:56:53.664Z,100275
2015-05-01T00:57:07.554Z,100275
2015-05-01T00:57:21.445Z,100282
2015-05-01T00:57:35.493Z,100282
2015-05-01T00:57:49.415Z,100290
2015-05-01T00:58:03.305Z,100275
2015-05-01T00:58:17.321Z,100269
2015-05-01T00:58:31.246Z,100272
2015-05-01T00:58:45.308Z,100279
2015-05-01T00:58:59.230Z,100275
2015-05-01T00:59:13.168Z,100263
2015-05-01T00:59:27.232Z,100275
2015-05-01T00:59:41.201Z,100272
2015-05-01T00:59:55.091Z,100275
2015-05-01T01:00:09.138Z,100269
2015-05-01T01:00:23.138Z,100269
2015-05-01T01:00:37.047Z,100272
2015-05-01T01:00:51.797Z,100263
2015-05-01T01:01:05.781Z,100269
2015-05-01T01:01:19.593Z,100275
2015-05-01T01:01:33.549Z,100272
2015-05-01T01:01:47.549Z,100269
2015-05-01T01:02:01.424Z,100263
2015-05-01T01:02:15.377Z,100266
2015-05-01T01:02:29.380Z,100266
2015-05-01T01:02:43.286Z,100266
2015-05-01T01:02:57.223Z,100282
2015-05-01T01:03:11.255Z,100279
2015-05-01T01:03:25.208Z,100275
2015-05-01T01:03:39.070Z,100279
2015-05-01T01:03:53.133Z,100282
2015-05-01T01:04:07.117Z,100260
2015-05-01T01:04:21.101Z,100269
2015-05-01T01:04:34.994Z,100275
2015-05-01T01:04:48.963Z,100272
2015-05-01T01:05:03.041Z,100275
2015-05-01T01:05:17.010Z,100266
2015-05-01T01:05:30.902Z,100278
2015-05-01T01:05:44.965Z,100272
2015-05-01T01:05:58.949Z,100269
2015-05-01T01:06:12.840Z,100269
2015-05-01T01:06:26.793Z,100266
2015-05-01T01:06:40.795Z,100272
2015-05-01T01:06:54.670Z,100257
2015-05-01T01:07:08.623Z,100266
2015-05-01T01:07:22.529Z,100272
2015-05-01T01:07:36.531Z,100257
2015-05-01T01:07:50.516Z,100263
2015-05-01T01:08:04.391Z,100260
2015-05-01T01:08:18.359Z,100263
2015-05-01T01:08:32.378Z,100254
2015-05-01T01:08:46.269Z,100254
2015-05-01T01:09:00.237Z,100257
2015-05-01T01:09:14.269Z,100260
2015-05-01T01:09:28.222Z,100269
2015-05-01T01:09:42.177Z,100269
2015-05-01T01:09:56.255Z,100248
2015-05-01T01:10:10.255Z,100251
2015-05-01T01:10:24.318Z,100266
2015-05-01T01:10:38.227Z,100260
2015-05-01T01:10:52.274Z,100263
2015-05-01T01:11:06.352Z,100254
2015-05-01T01:11:20.274Z,100263
2015-05-01T01:11:34.276Z,100263
2015-05-01T01:11:48.338Z,100254
2015-05-01T01:12:02.276Z,100251
2015-05-01T01:12:16.229Z,100263
2015-05-01T01:12:30.260Z,100263
2015-05-01T01:12:44.246Z,100260
2015-05-01T01:12:58.184Z,100257
2015-05-01T01:13:12.184Z,100263
2015-05-01T01:13:26.121Z,100263
2015-05-01T01:13:40.156Z,100260
2015-05-01T01:13:54.093Z,100263
2015-05-01T01:14:08.015Z,100260
2015-05-01T01:14:22.093Z,100254
2015-05-01T01:14:36.048Z,100257
2015-05-01T01:14:49.923Z,100260
2015-05-01T01:15:03.908Z,100263
2015-05-01T01:15:17.939Z,100248
2015-05-01T01:15:31.830Z,100254
2015-05-01T01:15:45.848Z,100248
2015-05-01T01:15:59.864Z,100254
2015-05-01T01:16:13.817Z,100248
2015-05-01T01:16:27.801Z,100254
2015-05-01T01:16:41.678Z,100254
2015-05-01T01:16:55.741Z,100251
2015-05-01T01:17:09.772Z,100260
2015-05-01T01:17:23.647Z,100251
2015-05-01T01:17:37.633Z,100257
2015-05-01T01:17:51.618Z,100248
2015-05-01T01:18:05.493Z,100251
2015-05-01T01:18:19.446Z,100254
2015-05-01T01:18:33.477Z,100257
2015-05-01T01:18:47.385Z,100257
2015-05-01T01:19:01.339Z,100257
2015-05-01T01:19:15.354Z,100251
2015-05-01T01:19:29.339Z,100251
2015-05-01T01:19:43.342Z,100257
2015-05-01T01:19:57.373Z,100269
2015-05-01T01:20:11.373Z,100257
2015-05-01T01:20:25.404Z,100254
2015-05-01T01:20:39.281Z,100239
2015-05-01T01:20:53.265Z,100254
2015-05-01T01:21:07.344Z,100251
2015-05-01T01:21:21.297Z,100242
2015-05-01T01:21:35.250Z,100251
2015-05-01T01:21:49.284Z,100248
2015-05-01T01:22:03.268Z,100245
2015-05-01T01:22:17.331Z,100254
2015-05-01T01:22:31.268Z,100248
2015-05-01T01:22:45.285Z,100254
2015-05-01T01:22:59.426Z,100266
2015-05-01T01:23:13.441Z,100263
2015-05-01T01:23:27.379Z,100248
2015-05-01T01:23:41.413Z,100245
2015-05-01T01:23:55.382Z,100257
2015-05-01T01:24:09.366Z,100269
2015-05-01T01:24:23.444Z,100263
2015-05-01T01:24:37.444Z,100248
2015-05-01T01:24:51.384Z,100260
2015-05-01T01:25:05.431Z,100254
2015-05-01T01:25:19.446Z,100257
2015-05-01T01:25:33.399Z,100266
2015-05-01T01:25:47.356Z,100260
2015-05-01T01:26:01.387Z,100254
2015-05-01T01:26:15.356Z,100260
2015-05-01T01:26:29.340Z,100260
2015-05-01T01:26:43.373Z,100266
2015-05-01T01:26:57.342Z,100257
2015-05-01T01:27:11.279Z,100257
2015-05-01T01:27:25.311Z,100263
2015-05-01T01:27:39.295Z,100254
2015-05-01T01:27:53.219Z,100278
2015-05-01T01:28:07.281Z,100272
2015-05-01T01:28:21.266Z,100275
2015-05-01T01:28:35.313Z,100272
2015-05-01T01:28:49.237Z,100266
2015-05-01T01:29:03.143Z,100275
2015-05-01T01:29:17.221Z,100269
2015-05-01T01:29:31.112Z,100275
2015-05-01T01:29:45.021Z,100263
2015-05-01T01:29:59.068Z,100269
2015-05-01T01:30:13.036Z,100266
2015-05-01T01:30:26.927Z,100269
2015-05-01T01:30:40.896Z,100281
2015-05-01T01:30:55.758Z,100275
2015-05-01T01:31:09.711Z,100281
2015-05-01T01:31:23.649Z,100272
2015-05-01T01:31:37.555Z,100275
2015-05-01T01:31:51.603Z,100275
2015-05-01T01:32:05.587Z,100287
2015-05-01T01:32:19.447Z,100275
2015-05-01T01:32:33.431Z,100275
2015-05-01T01:32:47.434Z,100266
2015-05-01T01:33:01.340Z,100275
2015-05-01T01:33:15.309Z,100263
2015-05-01T01:33:29.387Z,100275
2015-05-01T01:33:43.293Z,100281
2015-05-01T01:33:57.249Z,100266
2015-05-01T01:34:11.217Z,100263
2015-05-01T01:34:25.202Z,100278
2015-05-01T01:34:39.233Z,100266
2015-05-01T01:34:53.158Z,100275
2015-05-01T01:35:07.142Z,100269
2015-05-01T01:35:21.158Z,100266
2015-05-01T01:35:35.048Z,100275
2015-05-01T01:35:49.222Z,100269
2015-05-01T01:36:03.300Z,100269
2015-05-01T01:36:17.222Z,100272
2015-05-01T01:36:31.207Z,100272
2015-05-01T01:36:45.241Z,100275
2015-05-01T01:36:59.194Z,100266
2015-05-01T01:37:13.194Z,100266
2015-05-01T01:37:27.069Z,100269
2015-05-01T01:37:41.038Z,100266
2015-05-01T01:37:55.071Z,100269
2015-05-01T01:38:09.009Z,100275
2015-05-01T01:38:22.977Z,100266
2015-05-01T01:38:37.009Z,100263
2015-05-01T01:38:50.979Z,100254
2015-05-01T01:39:04.932Z,100260
2015-05-01T01:39:18.995Z,100266
2015-05-01T01:39:33.011Z,100266
2015-05-01T01:39:47.013Z,100266
2015-05-01T01:40:01.075Z,100260
2015-05-01T01:40:15.059Z,100275
2015-05-01T01:40:29.184Z,100263
2015-05-01T01:40:43.138Z,100260
2015-05-01T01:40:57.031Z,100266
2015-05-01T01:41:11.016Z,100260
2015-05-01T01:41:25.000Z,100266
2015-05-01T01:41:38.875Z,100257
2015-05-01T01:41:52.939Z,100263
2015-05-01T01:42:06.893Z,100278
2015-05-01T01:42:20.814Z,100266
2015-05-01T01:42:34.768Z,100263
2015-05-01T01:42:48.816Z,100263
2015-05-01T01:43:02.738Z,100266
2015-05-01T01:43:16.723Z,100263
2015-05-01T01:43:30.613Z,100266
2015-05-01T01:43:44.613Z,100263
2015-05-01T01:43:58.615Z,100272
2015-05-01T01:44:12.615Z,100266
2015-05-01T01:44:26.600Z,100266
2015-05-01T01:44:40.631Z,100263
2015-05-01T01:44:54.525Z,100251
2015-05-01T01:45:08.478Z,100257
2015-05-01T01:45:22.571Z,100278
2015-05-01T01:45:36.493Z,100257
2015-05-01T01:45:50.417Z,100263
2015-05-01T01:46:04.402Z,100260
2015-05-01T01:46:18.417Z,100269
2015-05-01T01:46:32.495Z,100257
2015-05-01T01:46:46.389Z,100263
2015-05-01T01:47:00.358Z,100263
2015-05-01T01:47:14.389Z,100257
2015-05-01T01:47:28.295Z,100263
2015-05-01T01:47:42.201Z,100260
2015-05-01T01:47:56.219Z,100266
2015-05-01T01:48:10.141Z,100269
2015-05-01T01:48:24.016Z,100254
2015-05-01T01:48:38.047Z,100266
2015-05-01T01:48:52.018Z,100260
2015-05-01T01:49:05.877Z,100275
2015-05-01T01:49:19.877Z,100269
2015-05-01T01:49:33.877Z,100266
2015-05-01T01:49:47.770Z,100275
2015-05-01T01:50:01.707Z,100263
2015-05-01T01:50:15.739Z,100263
2015-05-01T01:50:29.598Z,100266
2015-05-01T01:50:43.536Z,100266
2015-05-01T01:50:57.617Z,100254
2015-05-01T01:51:11.585Z,100257
2015-05-01T01:51:25.492Z,100269
2015-05-01T01:51:39.539Z,100263
2015-05-01T01:51:53.462Z,100272
2015-05-01T01:52:07.509Z,100269
2015-05-01T01:52:21.462Z,100263
2015-05-01T01:52:35.416Z,100254
2015-05-01T01:52:49.433Z,100257
2015-05-01T01:53:03.355Z,100260
2015-05-01T01:53:17.246Z,100266
2015-05-01T01:53:31.261Z,100263
2015-05-01T01:53:45.183Z,100251
2015-05-01T01:53:59.060Z,100257
2015-05-01T01:54:13.107Z,100263
2015-05-01T01:54:27.060Z,100260
2015-05-01T01:54:40.951Z,100257
2015-05-01T01:54:54.984Z,100269
2015-05-01T01:55:08.906Z,100263
2015-05-01T01:55:22.937Z,100263
2015-05-01T01:55:36.890Z,100269
2015-05-01T01:55:50.768Z,100260
2015-05-01T01:56:04.815Z,100269
2015-05-01T01:56:18.800Z,100266
2015-05-01T01:56:32.675Z,100266
2015-05-01T01:56:46.675Z,100269
2015-05-01T01:57:00.662Z,100269
2015-05-01T01:57:14.553Z,100275
2015-05-01T01:57:28.568Z,100260
2015-05-01T01:57:42.662Z,100269
2015-05-01T01:57:56.601Z,100272
2015-05-01T01:58:10.601Z,100272
2015-05-01T01:58:24.492Z,100266
2015-05-01T01:58:38.523Z,100263
2015-05-01T01:58:52.525Z,100275
2015-05-01T01:59:06.400Z,100269
2015-05-01T01:59:20.353Z,100266
2015-05-01T01:59:34.385Z,100281
2015-05-01T01:59:48.260Z,100266
2015-05-01T02:00:02.247Z,100266
2015-05-01T02:00:16.263Z,100263
2015-05-01T02:00:30.169Z,100269
2015-05-01T02:00:44.388Z,100263
2015-05-01T02:00:58.968Z,100272
2015-05-01T02:01:12.952Z,100269
2015-05-01T02:01:26.968Z,100272
2015-05-01T02:01:40.843Z,100272
2015-05-01T02:01:54.829Z,100272
2015-05-01T02:02:08.860Z,100260
2015-05-01T02:02:22.751Z,100266
2015-05-01T02:02:36.673Z,100278
2015-05-01T02:02:50.707Z,100263
2015-05-01T02:03:04.645Z,100263
2015-05-01T02:03:18.567Z,100272
2015-05-01T02:03:32.613Z,100263
2015-05-01T02:03:46.613Z,100269
2015-05-01T02:04:00.583Z,100266
2015-05-01T02:04:14.536Z,100278
2015-05-01T02:04:28.458Z,100269
2015-05-01T02:04:42.505Z,100272
2015-05-01T02:04:56.430Z,100266
2015-05-01T02:05:10.321Z,100263
2015-05-01T02:05:24.321Z,100263
2015-05-01T02:05:38.274Z,100260
2015-05-01T02:05:52.166Z,100251
2015-05-01T02:06:06.119Z,100266
2015-05-01T02:06:20.119Z,100266
2015-05-01T02:06:34.010Z,100266
2015-05-01T02:06:47.994Z,100251
2015-05-01T02:07:01.872Z,100266
2015-05-01T02:07:15.919Z,100263
2015-05-01T02:07:29.888Z,100254
2015-05-01T02:07:43.763Z,100251
2015-05-01T02:07:57.733Z,100275
2015-05-01T02:08:11.733Z,100269
2015-05-01T02:08:25.608Z,100263
2015-05-01T02:08:39.545Z,100254
2015-05-01T02:08:53.548Z,100248
2015-05-01T02:09:07.455Z,100257
2015-05-01T02:09:21.439Z,100263
2015-05-01T02:09:35.533Z,100257
2015-05-01T02:09:49.470Z,100257
2015-05-01T02:10:03.503Z,100257
2015-05-01T02:10:17.410Z,100257
2015-05-01T02:10:32.550Z,100251
2015-05-01T02:10:46.597Z,100257
2015-05-01T02:11:00.460Z,100241
2015-05-01T02:11:14.397Z,100263
2015-05-01T02:11:28.428Z,100260
2015-05-01T02:11:42.319Z,100251
2015-05-01T02:11:56.274Z,100251
2015-05-01T02:12:10.258Z,100247
2015-05-01T02:12:24.196Z,100251
2015-05-01T02:12:38.071Z,100244
2015-05-01T02:12:52.087Z,100251
2015-05-01T02:13:06.058Z,100241
2015-05-01T02:13:19.918Z,100244
2015-05-01T02:13:33.918Z,100241
2015-05-01T02:13:47.949Z,100254
2015-05-01T02:14:01.810Z,100254
2015-05-01T02:14:15.795Z,100238
2015-05-01T02:14:29.826Z,100254
2015-05-01T02:14:43.701Z,100244
2015-05-01T02:14:57.687Z,100235
2015-05-01T02:15:11.812Z,100241
2015-05-01T02:15:25.734Z,100247
2015-05-01T02:15:39.672Z,100254
2015-05-01T02:15:53.674Z,100254
2015-05-01T02:16:07.705Z,100251
2015-05-01T02:16:21.752Z,100238
2015-05-01T02:16:35.627Z,100235
2015-05-01T02:16:49.549Z,100238
2015-05-01T02:17:03.582Z,100232
2015-05-01T02:17:17.473Z,100241
2015-05-01T02:17:31.379Z,100254
2015-05-01T02:17:45.426Z,100238
2015-05-01T02:17:59.366Z,100247
2015-05-01T02:18:13.272Z,100241
2015-05-01T02:18:27.304Z,100244
2015-05-01T02:18:41.288Z,100244
2015-05-01T02:18:55.259Z,100241
2015-05-01T02:19:09.165Z,100226
2015-05-01T02:19:23.071Z,100232
2015-05-01T02:19:37.118Z,100235
2015-05-01T02:19:51.056Z,100238
2015-05-01T02:20:04.949Z,100232
2015-05-01T02:20:18.981Z,100244
2015-05-01T02:20:32.996Z,100235
2015-05-01T02:20:46.856Z,100235
2015-05-01T02:21:00.873Z,100238
2015-05-01T02:21:14.873Z,100241
2015-05-01T02:21:28.779Z,100223
2015-05-01T02:21:42.779Z,100226
2015-05-01T02:21:56.735Z,100229
2015-05-01T02:22:10.844Z,100232
2015-05-01T02:22:24.828Z,100235
2015-05-01T02:22:38.703Z,100226
2015-05-01T02:22:52.672Z,100232
2015-05-01T02:23:06.690Z,100235
2015-05-01T02:23:20.549Z,100229
2015-05-01T02:23:34.502Z,100229
2015-05-01T02:23:48.533Z,100223
2015-05-01T02:24:02.411Z,100226
2015-05-01T02:24:16.333Z,100229
2015-05-01T02:24:30.411Z,100241
2015-05-01T02:24:44.349Z,100235
2015-05-01T02:24:58.351Z,100229
2015-05-01T02:25:12.242Z,100244
2015-05-01T02:25:26.273Z,100232
2015-05-01T02:25:40.304Z,100238
2015-05-01T02:25:54.210Z,100226
2015-05-01T02:26:08.166Z,100232
2015-05-01T02:26:22.245Z,100223
2015-05-01T02:26:36.166Z,100229
2015-05-01T02:26:50.088Z,100235
2015-05-01T02:27:04.137Z,100214
2015-05-01T02:27:18.090Z,100241
2015-05-01T02:27:31.997Z,100238
2015-05-01T02:27:46.012Z,100229
2015-05-01T02:27:59.952Z,100232
2015-05-01T02:28:13.983Z,100226
2015-05-01T02:28:27.889Z,100223
2015-05-01T02:28:41.811Z,100229
2015-05-01T02:28:55.827Z,100226
2015-05-01T02:29:09.736Z,100226
2015-05-01T02:29:23.580Z,100229
2015-05-01T02:29:37.642Z,100229
2015-05-01T02:29:51.580Z,100220
2015-05-01T02:30:05.472Z,100223
2015-05-01T02:30:19.457Z,100223
2015-05-01T02:30:33.441Z,100217
2015-05-01T02:30:48.644Z,100217
2015-05-01T02:31:02.568Z,100226
2015-05-01T02:31:16.459Z,100223
2015-05-01T02:31:30.443Z,100226
2015-05-01T02:31:44.381Z,100220
2015-05-01T02:31:58.256Z,100220
2015-05-01T02:32:12.289Z,100220
2015-05-01T02:32:26.273Z,100217
2015-05-01T02:32:40.195Z,100205
2015-05-01T02:32:54.179Z,100226
2015-05-01T02:33:08.245Z,100214
2015-05-01T02:33:22.151Z,100217
2015-05-01T02:33:36.089Z,100217
2015-05-01T02:33:50.042Z,100220
2015-05-01T02:34:04.014Z,100208
2015-05-01T02:34:18.045Z,100205
2015-05-01T02:34:31.904Z,100226
2015-05-01T02:34:45.889Z,100214
2015-05-01T02:34:59.951Z,100223
2015-05-01T02:35:13.843Z,100232
2015-05-01T02:35:27.733Z,100223
2015-05-01T02:35:41.765Z,100220
2015-05-01T02:35:55.671Z,100214
2015-05-01T02:36:09.580Z,100214
2015-05-01T02:36:23.627Z,100220
2015-05-01T02:36:37.549Z,100229
2015-05-01T02:36:51.455Z,100217
2015-05-01T02:37:05.473Z,100211
2015-05-01T02:37:19.473Z,100220
2015-05-01T02:37:33.473Z,100223
2015-05-01T02:37:47.473Z,100223
2015-05-01T02:38:01.457Z,100211
2015-05-01T02:38:15.334Z,100220
2015-05-01T02:38:29.287Z,100220
2015-05-01T02:38:43.350Z,100220
2015-05-01T02:38:57.287Z,100208
2015-05-01T02:39:11.228Z,100226
2015-05-01T02:39:25.306Z,100226
2015-05-01T02:39:39.212Z,100229
2015-05-01T02:39:53.243Z,100220
2015-05-01T02:40:07.136Z,100211
2015-05-01T02:40:21.089Z,100226
2015-05-01T02:40:35.089Z,100211
2015-05-01T02:40:48.964Z,100211
2015-05-01T02:41:02.886Z,100217
2015-05-01T02:41:16.904Z,100223
2015-05-01T02:41:30.810Z,100220
2015-05-01T02:41:44.716Z,100217
2015-05-01T02:41:58.763Z,100217
2015-05-01T02:42:12.703Z,100229
2015-05-01T02:42:26.610Z,100223
2015-05-01T02:42:40.594Z,100226
2015-05-01T02:42:54.516Z,100223
2015-05-01T02:43:08.550Z,100220
2015-05-01T02:43:22.472Z,100220
2015-05-01T02:43:36.378Z,100217
2015-05-01T02:43:50.425Z,100217
2015-05-01T02:44:04.378Z,100214
2015-05-01T02:44:18.255Z,100220
2015-05-01T02:44:32.318Z,100226
2015-05-01T02:44:46.302Z,100214
2015-05-01T02:45:00.208Z,100211
2015-05-01T02:45:14.226Z,100220
2015-05-01T02:45:28.273Z,100214
2015-05-01T02:45:42.210Z,100214
2015-05-01T02:45:56.148Z,100226
2015-05-01T02:46:10.041Z,100214
2015-05-01T02:46:24.041Z,100217
2015-05-01T02:46:38.009Z,100214
2015-05-01T02:46:51.916Z,100205
2015-05-01T02:47:05.916Z,100208
2015-05-01T02:47:19.886Z,100201
2015-05-01T02:47:33.761Z,100208
2015-05-01T02:47:47.714Z,100208
2015-05-01T02:48:01.746Z,100208
2015-05-01T02:48:15.607Z,100214
2015-05-01T02:48:29.560Z,100211
2015-05-01T02:48:43.607Z,100217
2015-05-01T02:48:57.498Z,100201
2015-05-01T02:49:11.407Z,100211
2015-05-01T02:49:25.469Z,100214
2015-05-01T02:49:39.407Z,100214
2015-05-01T02:49:53.298Z,100205
2015-05-01T02:50:07.329Z,100217
2015-05-01T02:50:21.315Z,100208
2015-05-01T02:50:35.206Z,100211
2015-05-01T02:50:49.206Z,100214
2015-05-01T02:51:03.253Z,100217
2015-05-01T02:51:17.146Z,100214
2015-05-01T02:51:31.162Z,100217
2015-05-01T02:51:45.053Z,100211
2015-05-01T02:51:59.068Z,100220
2015-05-01T02:52:13.039Z,100217
2015-05-01T02:52:26.898Z,100220
2015-05-01T02:52:40.867Z,100205
2015-05-01T02:52:54.836Z,100229
2015-05-01T02:53:08.742Z,100211
2015-05-01T02:53:22.697Z,100211
2015-05-01T02:53:36.728Z,100208
2015-05-01T02:53:50.603Z,100226
2015-05-01T02:54:04.541Z,100214
2015-05-01T02:54:18.653Z,100214
2015-05-01T02:54:32.606Z,100226